KESN/ESN METAR and TAF weather

Enter ICAO airport designator
Station Type Date Time Source
KESN METAR 2021/08/04 17:50 UTC NOAA

KESN 041750Z 04011KT 10SM SCT025 SCT031 23/18 A3013


Station Type Date Time Source
KESN Decoded METAR 2021/08/04 17:50 UTC NOAA

Easton / Newman Field, MD, United States (KESN) 38-48N 076-04W
Aug 04, 2021 - 01:50 PM EDT / 2021.08.04 1750 UTC
Wind: from the NE (040 degrees) at 13 MPH (11 KT):0
Visibility: 10 mile(s):0
Sky conditions: partly cloudy
Temperature: 73 F (23 C)
Dew Point: 64 F (18 C)
Relative Humidity: 73%
Pressure (altimeter): 30.13 in. Hg (1020 hPa)
ob: KESN 041750Z 04011KT 10SM SCT025 SCT031 23/18 A3013
cycle: 18

Station Type Date Time Source
KESN TAF UTC NOAA

Error!

Example: see airport list